createdAt,value
2022-11-30T00:00:25.752Z,63.37
2022-11-30T00:02:54.058Z,55.87
2022-11-30T00:05:28.541Z,58.97
2022-11-30T00:07:56.621Z,59.63
2022-11-30T00:10:24.832Z,57.77
2022-11-30T00:12:55.263Z,65.30
2022-11-30T00:15:24.413Z,55.67
2022-11-30T00:17:58.071Z,57.30
2022-11-30T00:20:26.778Z,59.63
2022-11-30T00:22:56.261Z,60.23
2022-11-30T00:25:24.258Z,63.10
2022-11-30T00:27:52.424Z,58.53
2022-11-30T00:30:20.609Z,61.53
2022-11-30T00:32:53.078Z,57.83
2022-11-30T00:35:22.656Z,59.00
2022-11-30T00:37:50.553Z,56.70
2022-11-30T00:40:18.777Z,53.27
2022-11-30T00:42:49.397Z,55.77
2022-11-30T00:45:18.536Z,60.77
2022-11-30T00:47:47.345Z,63.03
2022-11-30T00:50:17.842Z,61.57
2022-11-30T00:52:46.623Z,54.63
2022-11-30T00:55:14.890Z,56.47
2022-11-30T00:57:45.615Z,58.70
2022-11-30T01:00:27.187Z,60.70
2022-11-30T01:02:57.703Z,61.13
2022-11-30T01:05:34.791Z,58.93
2022-11-30T01:08:03.944Z,68.47
2022-11-30T01:10:35.313Z,64.30
2022-11-30T01:13:05.556Z,56.73
2022-11-30T01:15:50.150Z,54.17
2022-11-30T01:18:21.895Z,58.97
2022-11-30T01:20:53.762Z,66.90
2022-11-30T01:26:06.347Z,58.60
2022-11-30T01:28:35.613Z,58.73
2022-11-30T01:31:06.176Z,55.53
2022-11-30T01:33:35.160Z,59.93
2022-11-30T01:36:06.759Z,63.23
2022-11-30T01:38:39.828Z,62.93
2022-11-30T01:41:09.120Z,55.27
2022-11-30T01:43:45.675Z,67.13
2022-11-30T01:49:23.071Z,60.33
2022-11-30T01:53:03.306Z,64.80
2022-11-30T01:55:36.257Z,59.70
2022-11-30T01:58:09.489Z,56.90
2022-11-30T02:00:37.285Z,56.20
2022-11-30T02:03:10.786Z,65.90
2022-11-30T02:05:41.761Z,58.97
2022-11-30T02:08:11.815Z,63.13
2022-11-30T02:10:44.118Z,63.70
2022-11-30T02:13:32.381Z,61.90
2022-11-30T02:16:14.850Z,59.93
2022-11-30T02:18:56.624Z,57.27
2022-11-30T02:21:33.551Z,54.43
2022-11-30T02:24:36.459Z,66.13
2022-11-30T02:27:17.909Z,53.57
2022-11-30T02:29:50.713Z,58.10
2022-11-30T02:35:48.106Z,65.07
2022-11-30T02:38:32.430Z,81.17
2022-11-30T02:41:04.123Z,61.13
2022-11-30T02:46:27.881Z,54.83
2022-11-30T02:51:53.546Z,58.90
2022-11-30T02:54:26.484Z,55.10
2022-11-30T02:59:30.690Z,54.57
2022-11-30T03:02:21.878Z,63.27
2022-11-30T03:04:51.285Z,61.23
2022-11-30T03:07:19.909Z,53.97
2022-11-30T03:09:48.870Z,50.23
2022-11-30T03:12:17.578Z,57.00
2022-11-30T03:18:04.212Z,57.90
2022-11-30T03:24:59.645Z,53.27
2022-11-30T03:31:52.909Z,60.67
2022-11-30T03:41:27.922Z,59.67
2022-11-30T03:44:00.817Z,59.83
2022-11-30T03:46:30.689Z,57.97
2022-11-30T03:49:17.912Z,65.37
2022-11-30T04:05:49.374Z,59.87
2022-11-30T04:08:19.351Z,59.50
2022-11-30T04:10:48.548Z,61.27
2022-11-30T04:13:16.956Z,60.53
2022-11-30T04:15:59.087Z,58.97
2022-11-30T04:18:33.822Z,65.97
2022-11-30T04:23:42.252Z,56.83
2022-11-30T04:26:19.965Z,61.03
2022-11-30T04:28:51.616Z,58.20
2022-11-30T04:31:23.923Z,55.47
2022-11-30T04:34:00.596Z,62.07
2022-11-30T04:37:20.299Z,62.47
2022-11-30T04:39:52.734Z,58.00
2022-11-30T04:42:43.069Z,59.97
2022-11-30T04:49:18.897Z,62.73
2022-11-30T04:52:19.103Z,67.30
2022-11-30T04:55:52.477Z,66.97
2022-11-30T04:58:59.515Z,66.87
2022-11-30T05:01:30.590Z,65.40
2022-11-30T05:04:04.588Z,63.40
2022-11-30T05:07:01.889Z,67.80
2022-11-30T05:10:03.041Z,62.17
2022-11-30T05:12:31.143Z,61.90
2022-11-30T05:15:00.713Z,68.17
2022-11-30T05:17:28.672Z,62.30
2022-11-30T05:19:56.484Z,62.97
2022-11-30T05:22:24.465Z,61.83
2022-11-30T05:24:52.372Z,66.20
2022-11-30T05:27:22.767Z,61.73
2022-11-30T05:29:50.988Z,68.23
2022-11-30T05:32:20.562Z,63.83
2022-11-30T05:34:52.100Z,68.80
2022-11-30T05:37:26.124Z,68.23
2022-11-30T05:45:36.695Z,59.83
2022-11-30T05:48:10.736Z,64.97
2022-11-30T05:50:44.657Z,55.27
2022-11-30T05:53:24.196Z,60.50
2022-11-30T05:55:54.259Z,62.40
2022-11-30T05:58:22.500Z,65.80
2022-11-30T06:00:50.800Z,63.13
2022-11-30T06:03:21.311Z,66.73
2022-11-30T06:08:52.184Z,60.53
2022-11-30T06:11:20.112Z,56.97
2022-11-30T06:13:47.969Z,57.70
2022-11-30T06:16:15.948Z,59.93
2022-11-30T06:18:45.408Z,62.67
2022-11-30T06:21:14.255Z,62.77
2022-11-30T06:23:43.026Z,65.57
2022-11-30T06:26:13.264Z,64.77
2022-11-30T06:28:46.606Z,62.07
2022-11-30T06:31:16.100Z,69.80
2022-11-30T06:33:45.627Z,64.63
2022-11-30T06:36:13.392Z,67.53
2022-11-30T06:38:41.360Z,63.33
2022-11-30T06:41:12.569Z,61.73
2022-11-30T06:43:41.206Z,74.00
2022-11-30T06:46:09.643Z,65.30
2022-11-30T06:48:37.773Z,71.20
2022-11-30T06:51:09.018Z,59.87
2022-11-30T06:53:37.686Z,58.87
2022-11-30T06:56:10.327Z,61.23
2022-11-30T06:58:39.409Z,61.73
2022-11-30T07:01:08.183Z,60.73
2022-11-30T07:03:36.594Z,59.00
2022-11-30T07:06:09.523Z,58.63
2022-11-30T07:08:37.719Z,75.60
2022-11-30T07:11:06.123Z,55.80
2022-11-30T07:13:34.102Z,61.63
2022-11-30T07:16:04.813Z,48.57
2022-11-30T07:18:32.821Z,57.03
2022-11-30T07:21:01.223Z,59.93
2022-11-30T07:23:54.093Z,59.57
2022-11-30T07:26:24.316Z,62.83
2022-11-30T07:28:54.906Z,66.83
2022-11-30T07:31:24.811Z,59.37
2022-11-30T07:33:53.443Z,60.20
2022-11-30T07:36:23.249Z,59.37
2022-11-30T07:38:52.839Z,57.03
2022-11-30T07:41:20.728Z,66.67
2022-11-30T07:43:48.521Z,57.07
2022-11-30T07:46:19.285Z,64.50
2022-11-30T07:48:47.571Z,54.83
2022-11-30T07:51:17.223Z,56.00
2022-11-30T07:53:48.368Z,57.43
2022-11-30T07:56:19.285Z,60.57
2022-11-30T07:58:47.579Z,55.47
2022-11-30T08:01:17.227Z,64.43
2022-11-30T08:03:45.607Z,60.53
2022-11-30T08:06:15.204Z,54.43
2022-11-30T08:08:44.784Z,55.63
2022-11-30T08:11:14.599Z,57.37
2022-11-30T08:13:43.843Z,58.17
2022-11-30T08:16:14.299Z,59.83
2022-11-30T08:18:42.881Z,53.83
2022-11-30T08:21:13.296Z,63.67
2022-11-30T08:23:43.016Z,58.73
2022-11-30T08:26:12.989Z,62.33
2022-11-30T08:28:41.304Z,52.53
2022-11-30T08:31:14.073Z,58.03
2022-11-30T08:33:42.316Z,60.97
2022-11-30T08:36:11.814Z,64.27
2022-11-30T08:38:40.890Z,55.87
2022-11-30T08:41:09.952Z,55.53
2022-11-30T08:43:37.922Z,57.83
2022-11-30T08:46:27.522Z,57.93
2022-11-30T08:49:13.024Z,56.67
2022-11-30T08:52:15.936Z,55.90
2022-11-30T08:54:34.631Z,66.20
2022-11-30T08:57:02.421Z,55.73
2022-11-30T08:59:32.036Z,57.63
2022-11-30T09:01:59.883Z,54.77
2022-11-30T09:04:29.000Z,59.77
2022-11-30T09:07:00.247Z,56.27
2022-11-30T09:09:28.182Z,70.27
2022-11-30T09:11:56.055Z,55.10
2022-11-30T09:14:24.096Z,61.67
2022-11-30T09:16:52.074Z,56.97
2022-11-30T09:19:20.157Z,53.37
2022-11-30T09:21:51.965Z,56.03
2022-11-30T09:24:20.466Z,49.53
2022-11-30T09:26:48.316Z,51.67
2022-11-30T09:29:16.177Z,52.93
2022-11-30T09:31:44.075Z,54.40
2022-11-30T09:34:13.248Z,51.80
2022-11-30T09:36:41.307Z,59.57
2022-11-30T09:39:12.909Z,59.03
2022-11-30T09:42:10.691Z,50.73
2022-11-30T09:44:49.200Z,48.87
2022-11-30T09:47:41.220Z,56.17
2022-11-30T09:50:14.908Z,50.60
2022-11-30T09:52:46.162Z,48.30
2022-11-30T09:55:23.783Z,53.83
2022-11-30T09:57:55.327Z,53.60
2022-11-30T10:00:25.179Z,51.90
2022-11-30T10:02:55.148Z,52.27
2022-11-30T10:05:27.014Z,56.83
2022-11-30T10:08:16.772Z,55.83
2022-11-30T10:10:57.333Z,62.60
2022-11-30T10:13:40.144Z,60.83
2022-11-30T10:16:19.735Z,56.70
2022-11-30T10:19:00.348Z,56.37
2022-11-30T10:21:41.918Z,58.27
2022-11-30T10:24:33.807Z,64.37
2022-11-30T10:27:15.362Z,56.57
2022-11-30T10:29:44.251Z,60.10
2022-11-30T10:32:19.948Z,59.33
2022-11-30T10:34:51.806Z,54.93
2022-11-30T10:37:23.177Z,53.43
2022-11-30T10:39:59.988Z,55.23
2022-11-30T10:42:33.920Z,65.00
2022-11-30T10:45:06.566Z,62.07
2022-11-30T10:47:37.750Z,63.77
2022-11-30T10:50:07.027Z,58.83
2022-11-30T10:52:42.396Z,52.67
2022-11-30T10:55:16.275Z,52.27
2022-11-30T10:57:48.114Z,53.77
2022-11-30T11:00:18.158Z,56.00
2022-11-30T11:02:48.377Z,59.63
2022-11-30T11:05:22.940Z,50.03
2022-11-30T11:07:57.036Z,57.20
2022-11-30T11:10:34.286Z,97.23
2022-11-30T11:13:05.179Z,56.57
2022-11-30T11:15:35.383Z,63.40
2022-11-30T11:18:25.655Z,51.50
2022-11-30T11:21:06.299Z,58.87
2022-11-30T11:23:38.235Z,63.30
2022-11-30T11:26:07.458Z,55.33
2022-11-30T11:28:39.478Z,66.27
2022-11-30T11:31:18.843Z,60.40
2022-11-30T11:33:54.354Z,57.30
2022-11-30T11:36:28.177Z,52.37
2022-11-30T11:38:57.176Z,55.00
2022-11-30T11:41:28.473Z,58.53
2022-11-30T11:44:07.302Z,57.87
2022-11-30T11:46:37.486Z,58.03
2022-11-30T11:49:07.645Z,56.03
2022-11-30T11:51:37.166Z,55.57
2022-11-30T11:54:17.679Z,57.23
2022-11-30T11:56:46.318Z,53.77
2022-11-30T11:59:21.998Z,55.93
2022-11-30T12:02:00.076Z,59.30
2022-11-30T12:04:49.349Z,62.03
2022-11-30T12:07:25.125Z,63.33
2022-11-30T12:10:02.819Z,58.53
2022-11-30T12:12:30.566Z,60.77
2022-11-30T12:14:59.980Z,59.83
2022-11-30T12:17:43.594Z,65.50
2022-11-30T12:20:24.547Z,61.57
2022-11-30T12:23:21.336Z,57.77
2022-11-30T12:25:58.156Z,71.87
2022-11-30T12:28:32.811Z,68.33
2022-11-30T12:31:12.500Z,61.70
2022-11-30T12:33:57.976Z,69.37
2022-11-30T12:36:36.344Z,61.47
2022-11-30T12:39:10.787Z,67.80
2022-11-30T12:41:43.700Z,70.90
2022-11-30T12:44:29.114Z,72.97
2022-11-30T12:47:05.867Z,78.47
2022-11-30T12:49:51.380Z,66.57
2022-11-30T12:52:35.006Z,65.33
2022-11-30T12:55:17.140Z,78.83
2022-11-30T12:57:53.163Z,68.53
2022-11-30T13:00:22.909Z,75.13
2022-11-30T13:03:24.725Z,68.13
2022-11-30T13:05:58.817Z,60.60
2022-11-30T13:08:30.293Z,71.83
2022-11-30T13:11:02.037Z,63.63
2022-11-30T13:13:33.225Z,66.97
2022-11-30T13:16:04.580Z,61.43
2022-11-30T13:18:34.851Z,68.67
2022-11-30T13:21:07.991Z,66.47
2022-11-30T13:23:41.450Z,71.83
2022-11-30T13:26:20.661Z,73.43
2022-11-30T13:29:04.650Z,72.60
2022-11-30T13:31:37.746Z,75.40
2022-11-30T13:34:24.812Z,52.47
2022-11-30T13:36:53.252Z,75.03
2022-11-30T13:39:26.180Z,70.17
2022-11-30T13:42:24.016Z,59.47
2022-11-30T13:44:51.941Z,79.87
2022-11-30T13:47:28.264Z,68.87
2022-11-30T13:49:59.988Z,72.87
2022-11-30T13:53:05.112Z,73.50
2022-11-30T13:55:58.028Z,78.77
2022-11-30T13:58:26.894Z,64.40
2022-11-30T14:01:22.584Z,75.43
2022-11-30T14:04:36.199Z,79.47
2022-11-30T14:07:26.503Z,78.97
2022-11-30T14:10:00.079Z,80.47
2022-11-30T14:12:59.585Z,82.53
2022-11-30T14:15:55.402Z,81.20
2022-11-30T14:18:28.596Z,85.07
2022-11-30T14:21:01.692Z,87.57
2022-11-30T14:23:37.838Z,84.47
2022-11-30T14:26:11.022Z,74.80
2022-11-30T14:28:44.797Z,80.53
2022-11-30T14:31:18.706Z,79.83
2022-11-30T14:33:54.436Z,84.07
2022-11-30T14:36:24.351Z,69.67
2022-11-30T14:38:53.792Z,69.63
2022-11-30T14:41:23.812Z,83.27
2022-11-30T14:44:07.036Z,75.13
2022-11-30T14:46:36.240Z,91.60
2022-11-30T14:49:12.024Z,95.73
2022-11-30T14:51:40.036Z,91.80
2022-11-30T14:54:18.854Z,88.97
2022-11-30T14:56:49.609Z,96.43
2022-11-30T14:59:30.539Z,83.10
2022-11-30T15:02:00.041Z,90.17
2022-11-30T15:04:28.859Z,91.13
2022-11-30T15:06:57.894Z,96.30
2022-11-30T15:09:30.796Z,96.97
2022-11-30T15:11:59.931Z,88.37
2022-11-30T15:14:27.762Z,99.17
2022-11-30T15:16:58.211Z,81.77
2022-11-30T15:19:28.174Z,79.33
2022-11-30T15:21:57.827Z,93.07
2022-11-30T15:24:28.194Z,85.13
2022-11-30T15:27:04.336Z,83.40
2022-11-30T15:29:38.681Z,87.47
2022-11-30T15:32:16.130Z,95.27
2022-11-30T15:34:53.494Z,90.90
2022-11-30T15:37:30.643Z,90.77
2022-11-30T15:40:02.248Z,86.27
2022-11-30T15:42:39.731Z,91.33
2022-11-30T15:45:18.074Z,86.77
2022-11-30T15:47:46.005Z,92.80
2022-11-30T15:50:41.623Z,112.13
2022-11-30T15:53:28.672Z,88.80
2022-11-30T15:55:58.864Z,84.77
2022-11-30T15:58:39.882Z,87.30
2022-11-30T16:01:10.760Z,97.67
2022-11-30T16:04:03.432Z,80.37
2022-11-30T16:06:35.232Z,92.17
2022-11-30T16:09:08.477Z,89.00
2022-11-30T16:11:38.007Z,89.70
2022-11-30T16:14:05.814Z,95.97
2022-11-30T16:16:34.123Z,75.87
2022-11-30T16:19:02.120Z,98.47
2022-11-30T16:21:29.880Z,92.90
2022-11-30T16:23:57.732Z,92.00
2022-11-30T16:29:14.861Z,96.03
2022-11-30T16:31:42.768Z,90.00
2022-11-30T16:34:12.912Z,88.83
2022-11-30T16:36:40.795Z,68.07
2022-11-30T16:39:12.554Z,72.27
2022-11-30T16:41:40.358Z,77.87
2022-11-30T16:44:15.377Z,85.60
2022-11-30T16:46:43.488Z,85.73
2022-11-30T16:49:11.738Z,80.67
2022-11-30T16:51:41.650Z,86.00
2022-11-30T16:54:11.235Z,75.43
2022-11-30T16:56:39.082Z,77.80
2022-11-30T16:59:10.816Z,65.83
2022-11-30T17:01:45.624Z,83.03
2022-11-30T17:04:18.051Z,78.90
2022-11-30T17:06:50.684Z,87.73
2022-11-30T17:09:20.558Z,73.23
2022-11-30T17:11:51.172Z,87.87
2022-11-30T17:14:20.290Z,89.90
2022-11-30T17:16:49.610Z,76.03
2022-11-30T17:19:17.374Z,90.00
2022-11-30T17:21:45.815Z,83.10
2022-11-30T17:24:14.388Z,88.03
2022-11-30T17:26:42.261Z,79.53
2022-11-30T17:29:10.018Z,76.27
2022-11-30T17:31:37.999Z,98.07
2022-11-30T17:34:08.384Z,93.33
2022-11-30T17:36:36.138Z,94.60
2022-11-30T17:39:07.601Z,84.27
2022-11-30T17:41:35.732Z,75.67
2022-11-30T17:44:03.939Z,93.47
2022-11-30T17:46:31.886Z,88.03
2022-11-30T17:48:59.795Z,67.83
2022-11-30T17:51:29.101Z,79.50
2022-11-30T17:53:57.140Z,87.73
2022-11-30T17:56:25.909Z,91.07
2022-11-30T17:58:53.882Z,71.87
2022-11-30T18:01:23.975Z,77.83
2022-11-30T18:03:52.890Z,78.23
2022-11-30T18:06:21.344Z,66.97
2022-11-30T18:08:50.787Z,73.57
2022-11-30T18:11:20.378Z,70.10
2022-11-30T18:13:49.875Z,76.43
2022-11-30T18:16:19.492Z,84.63
2022-11-30T18:18:48.907Z,71.23
2022-11-30T18:21:19.129Z,63.00
2022-11-30T18:23:47.646Z,84.67
2022-11-30T18:26:18.982Z,63.87
2022-11-30T18:28:48.167Z,67.73
2022-11-30T18:31:16.047Z,79.97
2022-11-30T18:33:43.831Z,73.03
2022-11-30T18:36:11.631Z,81.13
2022-11-30T18:38:41.427Z,81.73
2022-11-30T18:41:09.274Z,74.07
2022-11-30T18:43:38.929Z,75.13
2022-11-30T18:46:08.688Z,58.23
2022-11-30T18:48:36.617Z,68.97
2022-11-30T18:51:11.817Z,67.23
2022-11-30T18:53:39.683Z,64.87
2022-11-30T18:56:13.024Z,72.10
2022-11-30T18:58:43.012Z,66.27
2022-11-30T19:01:13.901Z,70.23
2022-11-30T19:03:42.063Z,88.60
2022-11-30T19:06:11.808Z,70.30
2022-11-30T19:08:41.026Z,74.53
2022-11-30T19:11:10.881Z,69.70
2022-11-30T19:13:39.091Z,68.90
2022-11-30T19:16:10.462Z,68.43
2022-11-30T19:18:38.892Z,72.23
2022-11-30T19:21:10.753Z,74.03
2022-11-30T19:23:39.643Z,73.90
2022-11-30T19:26:08.475Z,71.13
2022-11-30T19:28:37.503Z,78.50
2022-11-30T19:31:10.399Z,75.37
2022-11-30T19:33:39.536Z,81.50
2022-11-30T19:36:09.444Z,82.40
2022-11-30T19:38:37.235Z,68.90
2022-11-30T19:41:08.879Z,75.77
2022-11-30T19:43:36.928Z,76.10
2022-11-30T19:46:06.475Z,63.10
2022-11-30T19:48:36.136Z,83.97
2022-11-30T19:51:06.739Z,68.47
2022-11-30T19:53:35.704Z,73.97
2022-11-30T19:56:06.170Z,61.10
2022-11-30T19:58:34.449Z,72.07
2022-11-30T20:01:02.742Z,75.67
2022-11-30T20:03:35.671Z,69.33
2022-11-30T20:06:03.535Z,76.37
2022-11-30T20:08:31.695Z,78.03
2022-11-30T20:10:59.775Z,84.27
2022-11-30T20:13:27.664Z,81.80
2022-11-30T20:15:55.657Z,79.07
2022-11-30T20:18:23.688Z,67.77
2022-11-30T20:20:52.740Z,69.60
2022-11-30T20:23:20.803Z,70.30
2022-11-30T20:25:48.534Z,73.67
2022-11-30T20:28:16.394Z,69.43
2022-11-30T20:30:45.677Z,69.97
2022-11-30T20:33:13.571Z,82.77
2022-11-30T20:35:41.508Z,78.30
2022-11-30T20:38:10.977Z,71.03
2022-11-30T20:40:39.806Z,67.93
2022-11-30T20:43:07.720Z,70.33
2022-11-30T20:45:35.610Z,61.83
2022-11-30T20:48:04.931Z,80.60
2022-11-30T20:50:36.056Z,78.27
2022-11-30T20:53:05.329Z,72.73
2022-11-30T20:55:34.438Z,75.30
2022-11-30T20:58:02.288Z,70.43
2022-11-30T21:00:30.098Z,72.23
2022-11-30T21:02:58.175Z,74.67
2022-11-30T21:05:25.955Z,82.10
2022-11-30T21:07:53.941Z,72.07
2022-11-30T21:10:22.904Z,77.47
2022-11-30T21:12:52.493Z,73.33
2022-11-30T21:15:20.312Z,73.90
2022-11-30T21:17:48.169Z,78.47
2022-11-30T21:20:16.062Z,69.97
2022-11-30T21:22:43.864Z,72.67
2022-11-30T21:25:11.694Z,76.60
2022-11-30T21:27:39.499Z,72.73
2022-11-30T21:30:10.501Z,85.77
2022-11-30T21:32:38.616Z,72.37
2022-11-30T21:35:07.316Z,86.37
2022-11-30T21:37:35.352Z,67.23
2022-11-30T21:40:03.267Z,82.43
2022-11-30T21:42:31.296Z,80.73
2022-11-30T21:44:59.048Z,78.47
2022-11-30T21:47:31.821Z,83.23
2022-11-30T21:50:00.626Z,74.40
2022-11-30T21:52:28.518Z,77.50
2022-11-30T21:54:56.357Z,81.50
2022-11-30T21:57:24.466Z,79.90
2022-11-30T21:59:52.512Z,72.83
2022-11-30T22:02:20.411Z,74.83
2022-11-30T22:04:49.631Z,85.90
2022-11-30T22:07:17.659Z,79.77
2022-11-30T22:09:45.653Z,80.37
2022-11-30T22:12:21.656Z,85.30
2022-11-30T22:14:49.571Z,75.70
2022-11-30T22:17:17.612Z,75.17
2022-11-30T22:19:45.543Z,68.90
2022-11-30T22:22:31.036Z,61.17
2022-11-30T22:24:59.009Z,77.07
2022-11-30T22:27:26.937Z,77.37
2022-11-30T22:29:54.940Z,75.60
2022-11-30T22:32:22.936Z,74.00
2022-11-30T22:34:51.003Z,70.43
2022-11-30T22:37:18.833Z,72.97
2022-11-30T22:39:48.402Z,75.07
2022-11-30T22:42:16.910Z,75.17
2022-11-30T22:44:45.165Z,70.40
2022-11-30T22:47:13.632Z,88.20
2022-11-30T22:49:41.731Z,83.00
2022-11-30T22:52:09.636Z,83.17
2022-11-30T22:54:37.611Z,74.83
2022-11-30T22:57:07.084Z,75.47
2022-11-30T22:59:34.883Z,75.47
2022-11-30T23:02:02.822Z,83.93
2022-11-30T23:04:30.664Z,83.27
2022-11-30T23:06:58.807Z,91.03
2022-11-30T23:09:26.833Z,76.70
2022-11-30T23:11:54.808Z,74.83
2022-11-30T23:14:23.893Z,78.03
2022-11-30T23:16:51.724Z,79.07
2022-11-30T23:19:19.671Z,80.80
2022-11-30T23:21:50.005Z,73.20
2022-11-30T23:24:20.496Z,80.10
2022-11-30T23:26:48.286Z,80.63
2022-11-30T23:29:17.682Z,73.97
2022-11-30T23:31:48.117Z,75.57
2022-11-30T23:34:18.418Z,72.53
2022-11-30T23:36:46.642Z,78.43
2022-11-30T23:39:16.650Z,68.53
2022-11-30T23:41:44.775Z,75.10
2022-11-30T23:44:12.664Z,66.27
2022-11-30T23:46:40.661Z,83.23
2022-11-30T23:49:10.094Z,83.83
2022-11-30T23:51:38.072Z,65.43
2022-11-30T23:54:05.937Z,72.87
2022-11-30T23:56:33.695Z,71.47
2022-11-30T23:59:01.426Z,76.70
